Time;durP1;ratioP1;P1;durP2;ratioP2;P2;SDS_P1;SDS_P2;PMS_P1;PMS_P2;Temp;Humidity;BMP_temperature;BMP_pressure;BME280_temperature;BME280_humidity;BME280_pressure;Samples;Min_cycle;Max_cycle;Signal;HPM_P1;HPM_P2
2022/01/27 00:01:49;;;;;;;4.50;2.70;;;23.10;52.60;;;;;;215280;1293;22635;-57
2022/01/27 00:06:33;;;;;;;4.70;2.90;;;23.40;51.70;;;;;;214927;1294;22660;-57
2022/01/27 00:11:44;;;;;;;4.10;2.70;;;23.50;51.60;;;;;;215367;1294;22834;-57
2022/01/27 00:16:57;;;;;;;4.70;2.60;;;23.70;51.10;;;;;;215354;1293;24268;-58
2022/01/27 00:22:01;;;;;;;7.60;3.60;;;23.80;50.60;;;;;;215447;1293;25426;-59
2022/01/27 00:27:05;;;;;;;5.80;3.20;;;23.80;51.00;;;;;;215290;1293;26538;-59
2022/01/27 00:32:08;;;;;;;4.80;3.10;;;23.90;50.30;;;;;;215307;1293;22571;-57
2022/01/27 00:37:12;;;;;;;6.20;2.50;;;23.90;50.10;;;;;;215170;1293;22611;-58
2022/01/27 00:42:20;;;;;;;5.70;2.80;;;24.00;50.60;;;;;;215439;1293;24372;-57
2022/01/27 00:47:26;;;;;;;6.70;3.10;;;24.00;49.70;;;;;;215680;1293;22572;-57
2022/01/27 00:52:40;;;;;;;5.10;3.20;;;24.00;49.50;;;;;;215376;1293;26626;-59
2022/01/27 01:03:25;;;;;;;7.20;3.10;;;24.10;49.70;;;;;;215247;1293;25367;-57
2022/01/27 01:30:07;;;;;;;6.10;3.10;;;23.80;50.20;;;;;;215191;1293;25432;-55
2022/01/27 01:35:11;;;;;;;4.50;3.10;;;23.50;50.50;;;;;;215221;1293;24364;-60
2022/01/27 01:40:17;;;;;;;5.00;2.70;;;23.40;50.70;;;;;;215269;1293;22644;-57
2022/01/27 01:45:22;;;;;;;6.40;3.20;;;23.20;51.20;;;;;;215157;1293;22813;-58
2022/01/27 01:50:25;;;;;;;5.60;3.00;;;23.10;51.30;;;;;;215211;1293;22594;-59
2022/01/27 01:55:31;;;;;;;4.50;3.10;;;22.90;51.60;;;;;;215130;1294;22627;-57
2022/01/27 02:00:35;;;;;;;5.60;2.70;;;22.90;51.70;;;;;;215535;1293;22598;-57
2022/01/27 02:05:46;;;;;;;5.30;2.90;;;22.80;51.90;;;;;;215118;1293;24340;-59
2022/01/27 02:21:49;;;;;;;7.30;2.90;;;22.50;52.90;;;;;;215141;1293;23139;-57
2022/01/27 02:26:53;;;;;;;6.10;2.90;;;22.40;53.00;;;;;;215300;1293;22575;-60
2022/01/27 02:31:58;;;;;;;5.50;3.10;;;22.30;52.80;;;;;;215265;1295;25545;-57
2022/01/27 02:37:03;;;;;;;4.80;2.80;;;22.30;52.80;;;;;;215083;1295;22798;-57
2022/01/27 02:42:16;;;;;;;5.80;3.10;;;22.30;52.80;;;;;;215169;1296;25528;-58
2022/01/27 02:47:21;;;;;;;3.90;2.50;;;22.20;52.90;;;;;;215167;1293;25625;-57
2022/01/27 02:52:25;;;;;;;6.70;3.20;;;22.20;53.30;;;;;;215251;1295;22602;-58
2022/01/27 02:57:29;;;;;;;7.20;3.10;;;22.10;52.90;;;;;;215121;1295;25308;-59
2022/01/27 03:02:34;;;;;;;6.50;2.60;;;22.20;53.10;;;;;;215351;1293;23041;-59
2022/01/27 03:07:38;;;;;;;6.00;2.70;;;22.40;52.40;;;;;;215212;1293;23944;-58
2022/01/27 03:12:43;;;;;;;6.60;2.70;;;22.70;52.00;;;;;;215190;1293;22625;-57
2022/01/27 03:17:47;;;;;;;8.30;3.20;;;23.00;51.00;;;;;;215426;1293;22809;-58
2022/01/27 03:22:51;;;;;;;6.30;3.50;;;23.20;50.30;;;;;;215479;1293;25388;-60
2022/01/27 03:27:55;;;;;;;6.30;2.60;;;23.30;49.80;;;;;;215346;1293;25624;-59
2022/01/27 03:32:58;;;;;;;5.30;2.80;;;23.40;49.80;;;;;;215278;1293;22627;-58
2022/01/27 03:38:02;;;;;;;5.50;3.30;;;23.50;49.60;;;;;;215406;1293;22701;-57
2022/01/27 03:43:09;;;;;;;5.00;3.20;;;23.60;50.10;;;;;;215349;1293;25539;-58
2022/01/27 03:48:12;;;;;;;8.10;3.00;;;23.70;49.00;;;;;;215619;1293;22586;-57
2022/01/27 03:53:16;;;;;;;5.50;2.80;;;23.70;49.10;;;;;;215163;1293;22639;-57
2022/01/27 03:58:20;;;;;;;5.30;2.90;;;23.80;48.90;;;;;;215349;1294;22579;-58
2022/01/27 04:03:24;;;;;;;4.50;2.90;;;23.80;48.90;;;;;;215514;1293;22655;-58
2022/01/27 04:08:27;;;;;;;5.80;2.90;;;23.90;48.60;;;;;;215382;1293;25520;-56
2022/01/27 04:13:31;;;;;;;4.90;2.50;;;23.90;48.60;;;;;;215407;1293;22567;-58
2022/01/27 04:18:35;;;;;;;4.60;2.70;;;24.00;48.40;;;;;;215474;1293;22664;-58
2022/01/27 04:23:38;;;;;;;6.20;2.80;;;24.00;48.30;;;;;;215283;1292;22570;-59
2022/01/27 04:28:43;;;;;;;3.90;2.30;;;24.10;48.40;;;;;;215382;1293;22599;-58
2022/01/27 04:33:47;;;;;;;5.60;2.70;;;24.10;48.30;;;;;;215723;1293;23161;-57
2022/01/27 04:38:58;;;;;;;4.10;2.40;;;24.20;47.90;;;;;;215465;1293;22604;-58
2022/01/27 04:44:14;;;;;;;4.00;2.40;;;24.10;48.10;;;;;;215438;1293;22608;-58
2022/01/27 04:49:23;;;;;;;5.10;3.00;;;23.80;48.50;;;;;;215637;1293;22570;-59
2022/01/27 04:54:49;;;;;;;4.90;2.60;;;23.70;48.90;;;;;;215122;1293;22602;-59
2022/01/27 04:59:51;;;;;;;4.50;2.60;;;23.60;49.20;;;;;;215225;1293;24228;-58
2022/01/27 05:04:54;;;;;;;4.20;2.50;;;23.30;49.60;;;;;;215385;1293;22840;-60
2022/01/27 05:10:22;;;;;;;3.90;2.40;;;23.20;50.20;;;;;;215150;1293;25537;-58
2022/01/27 05:15:26;;;;;;;5.00;2.50;;;23.10;50.20;;;;;;215680;1293;22804;-58
2022/01/27 05:20:30;;;;;;;6.00;2.40;;;23.00;50.50;;;;;;215429;1293;22673;-60
2022/01/27 05:25:33;;;;;;;5.30;2.80;;;22.90;50.90;;;;;;215485;1293;25592;-57
2022/01/27 05:30:37;;;;;;;3.30;2.30;;;22.80;51.10;;;;;;215286;1293;22595;-60
2022/01/27 05:35:45;;;;;;;4.80;2.90;;;22.70;51.20;;;;;;215281;1293;22623;-58
2022/01/27 05:40:49;;;;;;;3.70;2.40;;;22.60;51.40;;;;;;215344;1293;24251;-58
2022/01/27 05:45:53;;;;;;;4.00;2.50;;;22.60;51.80;;;;;;215351;1293;22573;-58
2022/01/27 05:50:59;;;;;;;5.20;2.40;;;22.50;51.50;;;;;;215320;1293;26118;-57
2022/01/27 05:56:03;;;;;;;4.30;2.60;;;22.50;51.60;;;;;;215054;1293;187448;-59
2022/01/27 06:01:07;;;;;;;4.40;2.00;;;22.40;51.70;;;;;;215469;1293;25628;-56
2022/01/27 06:06:10;;;;;;;3.00;2.10;;;22.40;51.70;;;;;;215071;1293;23024;-58
2022/01/27 06:11:14;;;;;;;3.20;1.90;;;22.40;51.80;;;;;;215330;1293;25520;-57
2022/01/27 06:16:18;;;;;;;4.30;2.40;;;22.30;51.90;;;;;;215232;1293;22693;-57
2022/01/27 06:21:22;;;;;;;3.40;2.10;;;22.20;52.00;;;;;;215301;1294;22597;-57
2022/01/27 06:26:28;;;;;;;3.60;2.10;;;22.20;52.00;;;;;;215561;1293;25455;-59
2022/01/27 06:31:34;;;;;;;3.00;2.00;;;22.30;51.20;;;;;;215304;1293;23989;-57
2022/01/27 06:36:38;;;;;;;3.40;2.20;;;22.70;51.20;;;;;;215267;1293;22646;-58
2022/01/27 06:41:43;;;;;;;4.50;2.00;;;23.00;50.20;;;;;;215201;1293;22595;-58
2022/01/27 06:46:52;;;;;;;4.30;2.30;;;23.20;50.10;;;;;;215416;1293;26787;-59
2022/01/27 06:51:56;;;;;;;3.90;2.10;;;23.30;49.90;;;;;;215278;1293;22685;-57
2022/01/27 06:57:10;;;;;;;3.30;2.10;;;23.50;49.20;;;;;;215231;1293;25759;-61
2022/01/27 07:02:14;;;;;;;4.50;2.30;;;23.60;49.90;;;;;;215223;1293;22644;-59
2022/01/27 07:07:20;;;;;;;4.90;2.70;;;23.70;49.30;;;;;;215267;1293;24594;-59
2022/01/27 07:12:26;;;;;;;9.20;2.70;;;23.80;49.40;;;;;;215368;1293;22650;-60
2022/01/27 07:17:37;;;;;;;5.50;2.00;;;23.80;49.20;;;;;;215451;1293;25631;-59
2022/01/27 07:22:43;;;;;;;11.00;2.60;;;23.70;49.80;;;;;;215245;1293;22595;-58
2022/01/27 07:27:56;;;;;;;8.80;2.70;;;23.90;49.50;;;;;;215311;1292;25686;-57
2022/01/27 07:33:00;;;;;;;5.90;2.60;;;24.00;49.80;;;;;;215257;1293;24282;-56
2022/01/27 07:38:05;;;;;;;9.40;2.80;;;23.80;50.10;;;;;;215006;1293;22576;-57
2022/01/27 07:43:10;;;;;;;7.60;2.20;;;23.70;50.40;;;;;;215232;1293;22776;-56
2022/01/27 07:48:14;;;;;;;9.70;2.40;;;23.60;51.10;;;;;;215064;1293;24272;-57
2022/01/27 07:53:18;;;;;;;7.50;2.40;;;23.40;51.50;;;;;;215010;1293;26705;-54
2022/01/27 07:58:22;;;;;;;11.50;2.90;;;23.20;52.40;;;;;;215324;1292;22580;-57
2022/01/27 08:03:25;;;;;;;6.50;2.40;;;23.20;52.30;;;;;;215166;1293;22655;-55
2022/01/27 08:08:29;;;;;;;10.10;2.60;;;23.10;52.30;;;;;;215049;1293;22592;-57
2022/01/27 08:13:37;;;;;;;7.10;2.90;;;23.00;52.00;;;;;;216016;1293;25324;-56
2022/01/27 08:18:42;;;;;;;7.50;3.00;;;22.90;51.70;;;;;;222547;1293;22630;-57
2022/01/27 08:23:46;;;;;;;6.10;2.50;;;22.80;51.70;;;;;;216899;1293;22573;-56
2022/01/27 08:28:57;;;;;;;10.00;2.50;;;22.70;51.70;;;;;;215345;1293;24454;-55
2022/01/27 08:34:07;;;;;;;5.50;2.70;;;22.60;51.60;;;;;;215530;1293;25425;-55
2022/01/27 08:39:10;;;;;;;5.40;2.40;;;22.50;51.80;;;;;;215454;1293;25416;-59
2022/01/27 08:44:14;;;;;;;4.40;2.30;;;22.40;52.50;;;;;;215061;1293;22694;-55
2022/01/27 08:49:24;;;;;;;5.60;2.10;;;22.30;52.10;;;;;;215199;1293;24485;-57
2022/01/27 08:54:48;;;;;;;5.70;2.70;;;22.20;52.40;;;;;;215212;1293;23696;-57
2022/01/27 09:00:06;;;;;;;8.80;3.00;;;22.20;52.30;;;;;;215434;1293;24472;-56
2022/01/27 09:05:16;;;;;;;6.50;2.60;;;22.10;49.90;;;;;;215359;1293;22612;-56
2022/01/27 09:10:20;;;;;;;7.10;2.30;;;22.30;50.30;;;;;;215579;1293;22589;-57
2022/01/27 09:15:28;;;;;;;5.20;2.90;;;22.70;49.60;;;;;;215499;1293;24268;-57
2022/01/27 09:20:36;;;;;;;5.00;2.90;;;23.00;49.00;;;;;;215323;1293;22615;-56
2022/01/27 09:25:44;;;;;;;6.00;2.30;;;23.20;48.80;;;;;;215373;1293;22737;-57
2022/01/27 09:30:49;;;;;;;7.30;2.70;;;23.40;48.30;;;;;;215356;1293;25440;-57
2022/01/27 09:35:53;;;;;;;6.50;2.30;;;23.60;48.70;;;;;;215447;1293;22603;-57
2022/01/27 09:40:58;;;;;;;4.50;2.30;;;23.60;47.50;;;;;;215171;1293;22707;-56
2022/01/27 09:46:12;;;;;;;5.60;3.00;;;23.60;47.80;;;;;;215548;1293;25377;-56
2022/01/27 09:56:34;;;;;;;4.50;2.70;;;23.70;47.70;;;;;;215362;1293;25549;-55
2022/01/27 10:02:01;;;;;;;5.30;2.60;;;23.70;46.50;;;;;;215325;1293;22596;-55
2022/01/27 10:07:09;;;;;;;4.30;2.40;;;23.70;46.80;;;;;;215392;1293;22730;-55
2022/01/27 10:12:23;;;;;;;5.10;2.70;;;23.70;47.30;;;;;;215239;1293;24120;-56
2022/01/27 10:17:30;;;;;;;4.40;2.70;;;23.80;47.30;;;;;;215425;1293;22597;-56
2022/01/27 10:22:38;;;;;;;4.00;2.30;;;23.70;47.20;;;;;;215304;1293;25583;-57
2022/01/27 10:33:07;;;;;;;3.90;2.30;;;23.80;47.00;;;;;;215610;1293;25434;-54
2022/01/27 10:38:14;;;;;;;3.90;2.50;;;23.90;47.30;;;;;;215261;1293;22600;-56
2022/01/27 10:43:25;;;;;;;4.70;2.60;;;23.90;47.60;;;;;;215391;1293;22601;-56
2022/01/27 10:48:45;;;;;;;6.10;2.80;;;23.90;47.00;;;;;;215311;1293;24364;-55
2022/01/27 10:54:06;;;;;;;5.00;2.50;;;23.90;46.80;;;;;;215298;1293;24606;-55
2022/01/27 10:59:19;;;;;;;4.30;2.80;;;24.00;47.00;;;;;;215237;1296;25558;-55
2022/01/27 11:04:37;;;;;;;4.40;2.70;;;24.00;47.00;;;;;;215361;1293;22823;-56
2022/01/27 11:09:44;;;;;;;4.90;2.70;;;23.90;47.20;;;;;;215130;1293;24260;-55
2022/01/27 11:14:50;;;;;;;4.40;2.60;;;23.80;47.40;;;;;;215252;1293;22650;-55
2022/01/27 11:20:07;;;;;;;6.40;2.70;;;23.70;47.90;;;;;;215554;1293;22672;-55
2022/01/27 11:31:07;;;;;;;5.90;3.00;;;23.50;48.60;;;;;;215339;1292;22615;-54
2022/01/27 11:36:24;;;;;;;5.50;2.70;;;23.30;48.50;;;;;;215430;1293;24343;-57
2022/01/27 11:41:47;;;;;;;4.10;2.80;;;23.20;48.60;;;;;;215314;1293;24308;-55
2022/01/27 11:47:19;;;;;;;4.50;2.90;;;23.10;48.90;;;;;;215249;1293;22569;-56
2022/01/27 11:52:34;;;;;;;4.40;2.60;;;23.00;49.10;;;;;;215302;1293;22585;-58
2022/01/27 11:57:40;;;;;;;3.50;2.50;;;22.90;49.30;;;;;;215395;1293;22618;-56
2022/01/27 12:02:56;;;;;;;4.40;2.90;;;22.80;49.70;;;;;;215340;1293;25731;-56
2022/01/27 12:08:09;;;;;;;4.30;2.70;;;22.80;49.50;;;;;;215434;1293;22618;-54
2022/01/27 12:19:11;;;;;;;4.40;2.90;;;22.60;50.30;;;;;;215385;1293;22594;-57
2022/01/27 12:31:21;;;;;;;4.30;2.70;;;22.50;50.10;;;;;;215167;1293;25688;-55
2022/01/27 12:36:25;;;;;;;3.50;2.30;;;22.40;50.20;;;;;;217017;1293;22603;-56
2022/01/27 12:47:51;;;;;;;5.20;3.10;;;22.30;50.40;;;;;;216534;1293;26557;-56
2022/01/27 12:52:59;;;;;;;4.00;2.90;;;22.40;49.90;;;;;;215562;1293;22579;-55
2022/01/27 12:58:17;;;;;;;5.00;3.10;;;22.70;49.40;;;;;;215258;1293;22620;-55
2022/01/27 13:03:21;;;;;;;3.70;2.40;;;23.00;48.90;;;;;;215506;1293;24311;-59
2022/01/27 13:08:30;;;;;;;4.80;2.80;;;23.10;48.70;;;;;;215453;1293;24336;-58
2022/01/27 13:13:37;;;;;;;3.80;2.60;;;23.30;48.00;;;;;;215117;1296;22679;-54
2022/01/27 13:18:57;;;;;;;4.10;2.70;;;23.40;48.10;;;;;;215259;1292;22635;-56
2022/01/27 13:24:17;;;;;;;3.70;2.50;;;23.50;47.50;;;;;;215467;1293;24382;-56
2022/01/27 13:29:29;;;;;;;5.00;3.10;;;23.50;47.40;;;;;;215207;1293;24317;-53
2022/01/27 13:34:48;;;;;;;4.70;3.20;;;23.70;47.30;;;;;;215179;1293;22658;-58
2022/01/27 13:45:01;;;;;;;4.00;2.80;;;23.80;47.20;;;;;;215342;1293;22582;-57
2022/01/27 13:50:09;;;;;;;4.10;2.90;;;23.80;47.00;;;;;;215362;1293;23104;-52
2022/01/27 13:55:24;;;;;;;4.10;2.60;;;23.80;47.00;;;;;;215224;1293;22818;-57
2022/01/27 14:00:39;;;;;;;3.80;2.60;;;23.80;46.90;;;;;;215448;1293;22700;-57
2022/01/27 14:06:00;;;;;;;6.00;2.80;;;23.80;47.10;;;;;;215310;1293;22612;-56
2022/01/27 14:11:08;;;;;;;4.40;2.80;;;23.90;46.90;;;;;;215474;1293;24383;-54
2022/01/27 14:16:12;;;;;;;4.20;2.90;;;23.90;46.90;;;;;;215576;1292;24222;-57
2022/01/27 14:21:24;;;;;;;4.30;3.30;;;24.00;46.50;;;;;;215513;1293;22631;-55
2022/01/27 14:26:59;;;;;;;5.60;3.50;;;24.10;46.00;;;;;;215625;1293;24268;-57
2022/01/27 14:32:03;;;;;;;4.80;3.40;;;24.00;46.00;;;;;;215816;1293;23190;-58
2022/01/27 14:37:10;;;;;;;5.40;3.00;;;24.00;46.20;;;;;;215649;1293;22591;-57
2022/01/27 14:42:16;;;;;;;7.30;3.50;;;24.10;47.90;;;;;;215793;1293;25524;-57
2022/01/27 14:47:21;;;;;;;6.50;3.50;;;24.10;49.30;;;;;;215894;1293;25120;-57
2022/01/27 14:52:30;;;;;;;8.10;3.30;;;23.90;51.80;;;;;;215486;1293;22635;-59
2022/01/27 14:57:38;;;;;;;6.20;4.10;;;23.80;52.70;;;;;;215569;1293;25558;-58
2022/01/27 15:02:46;;;;;;;9.00;3.70;;;23.60;53.20;;;;;;215526;1293;23845;-56
2022/01/27 15:07:53;;;;;;;11.00;3.30;;;23.40;54.40;;;;;;215581;1293;25246;-57
2022/01/27 15:12:57;;;;;;;7.30;3.70;;;23.30;54.90;;;;;;215131;1293;22578;-58
2022/01/27 15:23:24;;;;;;;6.20;3.20;;;23.00;55.40;;;;;;215192;1292;22588;-58
2022/01/27 15:28:29;;;;;;;5.50;3.60;;;22.90;56.00;;;;;;215242;1293;22693;-56
2022/01/27 15:33:35;;;;;;;7.50;4.20;;;22.80;55.30;;;;;;215470;1293;22896;-59
2022/01/27 15:38:42;;;;;;;6.30;3.70;;;22.70;55.20;;;;;;215303;1293;25392;-58
2022/01/27 15:43:46;;;;;;;5.50;3.50;;;22.60;56.10;;;;;;215144;1293;24232;-57
2022/01/27 15:49:01;;;;;;;4.60;3.40;;;22.50;56.20;;;;;;215452;1293;22592;-57
2022/01/27 15:54:12;;;;;;;7.60;3.40;;;22.40;56.80;;;;;;215217;1293;26659;-53
2022/01/27 15:59:21;;;;;;;5.50;3.10;;;22.30;56.50;;;;;;215280;1293;25371;-57
2022/01/27 16:04:28;;;;;;;5.20;3.10;;;22.20;57.60;;;;;;215175;1293;24545;-54
2022/01/27 16:09:34;;;;;;;5.40;3.10;;;22.10;57.50;;;;;;215363;1293;22575;-56
2022/01/27 16:14:41;;;;;;;8.50;3.90;;;22.10;57.50;;;;;;215321;1293;23085;-58
2022/01/27 16:19:51;;;;;;;4.20;3.00;;;22.00;57.80;;;;;;215381;1293;22649;-56
2022/01/27 16:25:07;;;;;;;5.80;3.30;;;22.10;57.30;;;;;;215449;1293;22670;-57
2022/01/27 16:30:28;;;;;;;5.40;3.30;;;22.40;57.30;;;;;;215301;1293;25396;-57
2022/01/27 16:35:33;;;;;;;5.20;3.20;;;22.70;56.80;;;;;;215248;1293;24453;-56
2022/01/27 16:40:40;;;;;;;5.10;3.10;;;22.90;56.10;;;;;;215319;1294;24553;-56
2022/01/27 16:45:48;;;;;;;5.40;3.20;;;23.10;55.70;;;;;;215256;1293;22772;-54
2022/01/27 16:50:54;;;;;;;4.80;3.20;;;23.20;55.40;;;;;;215381;1293;25406;-56
2022/01/27 16:56:21;;;;;;;4.90;3.00;;;23.30;55.50;;;;;;215427;1293;24281;-57
2022/01/27 17:01:28;;;;;;;3.70;2.60;;;23.30;55.50;;;;;;215215;1293;23253;-55
2022/01/27 17:06:41;;;;;;;4.60;2.80;;;23.50;55.30;;;;;;215315;1294;22575;-56
2022/01/27 17:11:56;;;;;;;3.70;2.60;;;23.50;55.30;;;;;;215310;1296;22593;-56
2022/01/27 17:17:08;;;;;;;4.30;2.80;;;23.50;55.80;;;;;;215476;1294;24370;-54
2022/01/27 17:22:18;;;;;;;4.80;3.10;;;23.50;54.90;;;;;;215244;1296;25757;-57
2022/01/27 17:27:26;;;;;;;4.20;2.90;;;23.50;55.20;;;;;;215215;1293;22695;-57
2022/01/27 17:32:32;;;;;;;5.10;2.80;;;23.60;55.30;;;;;;215506;1293;24243;-58
2022/01/27 17:37:37;;;;;;;7.30;2.60;;;23.60;55.70;;;;;;215166;1296;22709;-59
2022/01/27 17:42:56;;;;;;;4.90;2.50;;;23.70;55.00;;;;;;215089;1297;23911;-57
2022/01/27 17:48:03;;;;;;;4.60;2.70;;;23.80;54.80;;;;;;215087;1296;22741;-57
2022/01/27 17:53:11;;;;;;;3.70;2.50;;;23.80;54.60;;;;;;215581;1297;23037;-55
2022/01/27 17:58:15;;;;;;;5.00;2.80;;;23.90;54.80;;;;;;215228;1293;197869;-57
2022/01/27 18:03:22;;;;;;;4.50;2.90;;;23.90;55.00;;;;;;215195;1297;25528;-58
2022/01/27 18:08:29;;;;;;;4.50;3.10;;;23.90;54.50;;;;;;215430;1294;24299;-57
2022/01/27 18:13:35;;;;;;;9.90;3.90;;;23.90;54.60;;;;;;215225;1297;22601;-57
2022/01/27 18:19:03;;;;;;;7.10;3.10;;;23.80;53.90;;;;;;215192;1294;24274;-56
2022/01/27 18:24:12;;;;;;;5.00;2.80;;;23.70;53.40;;;;;;215089;1297;24309;-55
2022/01/27 18:29:16;;;;;;;7.60;3.00;;;23.50;53.30;;;;;;215156;1296;24272;-56
2022/01/27 18:34:26;;;;;;;8.50;3.40;;;23.40;54.00;;;;;;215035;1294;22575;-59
2022/01/27 18:39:45;;;;;;;4.50;2.90;;;23.30;54.40;;;;;;214903;1298;22876;-58
2022/01/27 18:44:49;;;;;;;6.20;2.80;;;23.00;55.40;;;;;;215107;1296;25569;-56
2022/01/27 18:50:00;;;;;;;5.50;2.70;;;22.90;55.50;;;;;;215208;1293;24979;-57
2022/01/27 18:55:08;;;;;;;6.30;2.80;;;22.60;55.60;;;;;;214993;1296;24381;-56
2022/01/27 19:00:13;;;;;;;7.80;2.60;;;22.60;56.20;;;;;;215724;1294;22593;-56
2022/01/27 19:05:17;;;;;;;8.90;2.90;;;22.50;56.90;;;;;;215314;1293;22664;-57
2022/01/27 19:10:25;;;;;;;7.60;2.40;;;22.40;57.10;;;;;;215186;1293;22765;-57
2022/01/27 19:15:34;;;;;;;11.00;3.10;;;22.40;57.10;;;;;;215466;1293;25431;-57
2022/01/27 19:20:43;;;;;;;14.10;3.50;;;22.40;57.80;;;;;;214730;1293;25629;-57
2022/01/27 19:25:52;;;;;;;7.40;3.30;;;22.50;59.50;;;;;;215077;1297;22618;-58
2022/01/27 19:30:56;;;;;;;12.70;3.40;;;22.40;58.30;;;;;;215179;1293;23422;-55
2022/01/27 19:36:02;;;;;;;18.80;3.50;;;22.40;58.60;;;;;;214910;1293;25573;-58
2022/01/27 19:41:08;;;;;;;23.60;4.10;;;22.30;58.90;;;;;;214491;1293;22703;-56
2022/01/27 19:46:22;;;;;;;21.90;3.80;;;22.10;58.90;;;;;;214796;1293;22591;-57
2022/01/27 19:51:45;;;;;;;19.70;4.00;;;22.10;58.80;;;;;;214477;1296;22773;-58
2022/01/27 19:56:51;;;;;;;31.10;4.20;;;22.10;59.30;;;;;;217543;1293;24331;-57
2022/01/27 20:01:59;;;;;;;20.70;4.20;;;22.10;59.90;;;;;;214950;1296;24460;-57
2022/01/27 20:07:07;;;;;;;25.10;4.30;;;22.00;59.20;;;;;;215106;1293;26604;-57
2022/01/27 20:12:15;;;;;;;17.30;4.10;;;22.00;59.30;;;;;;215312;1293;22621;-56
2022/01/27 20:17:31;;;;;;;16.00;4.30;;;21.90;59.90;;;;;;215201;1293;22637;-57
2022/01/27 20:22:40;;;;;;;11.80;3.80;;;21.90;59.90;;;;;;215047;1293;24253;-58
2022/01/27 20:27:46;;;;;;;15.30;3.40;;;21.80;60.00;;;;;;215044;1293;22670;-57
2022/01/27 20:32:52;;;;;;;14.10;4.30;;;21.80;60.00;;;;;;214927;1293;24281;-56
2022/01/27 20:37:57;;;;;;;14.90;3.50;;;21.80;60.10;;;;;;215111;1293;22667;-56
2022/01/27 20:43:02;;;;;;;13.20;3.20;;;21.90;59.80;;;;;;214964;1293;25838;-55
2022/01/27 20:48:11;;;;;;;13.50;3.60;;;22.00;59.10;;;;;;215231;1293;26548;-57
2022/01/27 20:53:18;;;;;;;19.60;3.50;;;22.00;59.00;;;;;;214960;1293;23969;-56
2022/01/27 20:58:23;;;;;;;14.90;3.60;;;22.20;58.50;;;;;;215417;1293;22592;-54
2022/01/27 21:03:27;;;;;;;9.50;3.30;;;22.60;57.70;;;;;;215320;1293;25562;-57
2022/01/27 21:08:35;;;;;;;11.20;3.20;;;22.90;56.20;;;;;;215224;1293;26561;-56
2022/01/27 21:13:44;;;;;;;10.00;3.10;;;23.00;56.20;;;;;;215201;1293;22654;-57
2022/01/27 21:18:50;;;;;;;14.10;3.60;;;23.20;55.80;;;;;;217048;1293;24262;-56
2022/01/27 21:23:54;;;;;;;10.60;3.30;;;23.30;55.60;;;;;;215515;1293;22649;-58
2022/01/27 21:28:58;;;;;;;8.70;2.80;;;23.40;55.60;;;;;;215199;1293;22576;-56
2022/01/27 21:34:06;;;;;;;10.00;3.50;;;23.40;55.30;;;;;;215491;1293;24164;-57
2022/01/27 21:39:11;;;;;;;10.90;3.30;;;23.50;55.10;;;;;;215452;1293;22602;-57
2022/01/27 21:44:18;;;;;;;13.00;3.00;;;23.50;55.50;;;;;;215289;1293;26644;-58
2022/01/27 21:49:24;;;;;;;12.30;3.00;;;23.60;57.20;;;;;;215456;1293;23181;-57
2022/01/27 21:54:32;;;;;;;8.20;3.20;;;23.60;56.40;;;;;;215061;1293;25504;-58
2022/01/27 21:59:39;;;;;;;9.10;3.40;;;23.70;56.00;;;;;;215448;1293;24332;-57
2022/01/27 22:04:46;;;;;;;10.60;3.60;;;23.80;55.90;;;;;;215365;1293;22595;-57
2022/01/27 22:09:51;;;;;;;11.80;3.40;;;23.80;55.70;;;;;;215185;1293;24451;-57
2022/01/27 22:14:58;;;;;;;14.70;3.80;;;23.80;55.50;;;;;;215380;1293;24303;-56
2022/01/27 22:20:04;;;;;;;12.70;4.20;;;23.90;55.20;;;;;;215379;1293;26626;-57
2022/01/27 22:25:11;;;;;;;13.50;4.00;;;23.90;55.00;;;;;;215489;1293;22578;-56
2022/01/27 22:30:23;;;;;;;13.30;4.00;;;23.80;55.10;;;;;;215242;1296;22678;-57
2022/01/27 22:35:32;;;;;;;16.20;4.20;;;23.70;55.60;;;;;;215035;1293;24580;-57
2022/01/27 22:40:38;;;;;;;13.40;4.40;;;23.40;56.00;;;;;;215045;1295;22626;-57
2022/01/27 22:45:47;;;;;;;11.50;4.00;;;23.30;56.40;;;;;;215208;1296;22599;-56
2022/01/27 22:50:54;;;;;;;18.40;5.30;;;23.20;56.60;;;;;;215052;1295;23094;-57
2022/01/27 22:56:06;;;;;;;13.50;3.70;;;23.10;56.90;;;;;;215371;1293;22673;-58
2022/01/27 23:01:11;;;;;;;16.90;3.90;;;22.90;56.60;;;;;;215264;1296;22613;-56
2022/01/27 23:06:16;;;;;;;14.90;4.20;;;22.80;57.10;;;;;;214744;1296;23364;-57
2022/01/27 23:11:24;;;;;;;16.60;3.80;;;22.80;57.20;;;;;;215381;1292;22630;-55
2022/01/27 23:21:46;;;;;;;13.80;4.90;;;22.50;58.90;;;;;;215211;1295;22596;-57
2022/01/27 23:26:51;;;;;;;10.50;3.70;;;22.50;60.30;;;;;;215207;1296;25379;-57
2022/01/27 23:31:56;;;;;;;12.80;4.30;;;22.50;59.90;;;;;;215026;1295;22709;-58
2022/01/27 23:37:06;;;;;;;13.40;4.10;;;22.40;60.40;;;;;;214968;1293;23163;-56
2022/01/27 23:42:27;;;;;;;13.20;3.90;;;22.30;61.50;;;;;;215244;1293;22602;-55
2022/01/27 23:47:55;;;;;;;9.80;3.70;;;22.30;61.50;;;;;;215391;1296;25146;-56
2022/01/27 23:53:25;;;;;;;11.70;3.40;;;22.20;62.30;;;;;;215088;1295;22623;-55
2022/01/27 23:58:37;;;;;;;11.00;3.60;;;22.00;63.00;;;;;;215167;1296;22614;-56
